createdAt,value
2022-10-24T00:00:00.955Z,7.32
2022-10-24T00:02:30.165Z,6.63
2022-10-24T00:05:00.699Z,4.80
2022-10-24T00:07:30.136Z,6.25
2022-10-24T00:09:59.233Z,5.70
2022-10-24T00:12:28.322Z,5.47
2022-10-24T00:14:57.503Z,6.95
2022-10-24T00:17:26.596Z,6.18
2022-10-24T00:19:55.870Z,5.93
2022-10-24T00:22:26.531Z,7.20
2022-10-24T00:24:55.952Z,9.90
2022-10-24T00:27:25.302Z,6.53
2022-10-24T00:29:54.461Z,7.45
2022-10-24T00:32:23.569Z,5.78
2022-10-24T00:34:52.750Z,5.30
2022-10-24T00:37:21.922Z,6.50
2022-10-24T00:39:52.498Z,6.97
2022-10-24T00:42:21.709Z,6.70
2022-10-24T00:44:53.527Z,7.95
2022-10-24T00:47:26.233Z,7.68
2022-10-24T00:50:01.086Z,9.88
2022-10-24T00:52:33.415Z,6.60
2022-10-24T00:55:06.496Z,7.43
2022-10-24T00:57:40.109Z,7.90
2022-10-24T01:00:13.662Z,6.07
2022-10-24T01:02:43.512Z,8.05
2022-10-24T01:05:14.049Z,8.13
2022-10-24T01:07:53.386Z,10.93
2022-10-24T01:10:38.083Z,7.18
2022-10-24T01:13:16.952Z,5.53
2022-10-24T01:15:52.449Z,6.10
2022-10-24T01:18:27.876Z,6.60
2022-10-24T01:21:10.542Z,6.90
2022-10-24T01:24:16.175Z,7.63
2022-10-24T01:27:08.737Z,6.32
2022-10-24T01:29:50.913Z,7.13
2022-10-24T01:32:32.945Z,6.55
2022-10-24T01:35:09.459Z,5.90
2022-10-24T01:37:43.689Z,7.38
2022-10-24T01:40:17.784Z,7.07
2022-10-24T01:42:48.472Z,7.63
2022-10-24T01:45:26.795Z,7.10
2022-10-24T01:47:59.659Z,5.88
2022-10-24T01:50:30.171Z,6.93
2022-10-24T01:53:00.346Z,7.20
2022-10-24T01:55:31.556Z,6.40
2022-10-24T01:58:00.895Z,6.65
2022-10-24T02:00:31.730Z,8.13
2022-10-24T02:03:05.632Z,6.65
2022-10-24T02:05:39.350Z,5.40
2022-10-24T02:08:11.704Z,8.02
2022-10-24T02:10:46.379Z,8.23
2022-10-24T02:13:20.362Z,5.80
2022-10-24T02:15:56.648Z,6.90
2022-10-24T02:18:26.168Z,7.75
2022-10-24T02:20:59.903Z,7.40
2022-10-24T02:23:35.515Z,7.82
2022-10-24T02:26:09.428Z,8.95
2022-10-24T02:28:43.605Z,7.55
2022-10-24T02:31:18.506Z,5.20
2022-10-24T02:33:49.939Z,8.65
2022-10-24T02:36:24.337Z,6.90
2022-10-24T02:38:55.825Z,7.88
2022-10-24T02:41:30.057Z,6.93
2022-10-24T02:44:01.841Z,7.38
2022-10-24T02:46:33.541Z,7.22
2022-10-24T02:49:04.700Z,7.90
2022-10-24T02:51:36.683Z,6.90
2022-10-24T02:54:06.539Z,7.63
2022-10-24T02:56:38.469Z,10.00
2022-10-24T03:01:43.301Z,7.40
2022-10-24T03:04:13.015Z,7.63
2022-10-24T03:06:42.277Z,7.93
2022-10-24T03:09:11.485Z,9.50
2022-10-24T03:11:40.711Z,6.93
2022-10-24T03:14:09.947Z,8.00
2022-10-24T03:16:39.015Z,7.05
2022-10-24T03:19:09.585Z,8.18
2022-10-24T03:21:38.712Z,6.22
2022-10-24T03:26:42.454Z,7.32
2022-10-24T03:29:14.232Z,8.35
2022-10-24T03:31:43.345Z,7.72
2022-10-24T03:34:14.211Z,5.75
2022-10-24T03:36:43.317Z,8.70
2022-10-24T03:39:12.418Z,7.15
2022-10-24T03:41:41.500Z,6.18
2022-10-24T03:44:10.811Z,5.70
2022-10-24T03:46:39.897Z,7.97
2022-10-24T03:49:09.092Z,6.95
2022-10-24T03:51:39.650Z,8.23
2022-10-24T03:54:08.889Z,7.53
2022-10-24T03:56:38.114Z,8.77
2022-10-24T03:59:07.195Z,5.50
2022-10-24T04:01:36.572Z,8.77
2022-10-24T04:04:06.028Z,6.75
2022-10-24T04:06:36.524Z,5.63
2022-10-24T04:09:07.454Z,6.03
2022-10-24T04:11:36.612Z,4.93
2022-10-24T04:14:05.924Z,8.32
2022-10-24T04:16:35.111Z,7.07
2022-10-24T04:19:05.212Z,6.72
2022-10-24T04:21:34.382Z,10.85
2022-10-24T04:24:03.948Z,5.10
2022-10-24T04:26:34.745Z,7.18
2022-10-24T04:29:03.930Z,6.20
2022-10-24T04:31:33.091Z,5.88
2022-10-24T04:34:02.364Z,4.60
2022-10-24T04:36:31.544Z,6.05
2022-10-24T04:41:36.197Z,6.85
2022-10-24T04:44:05.756Z,4.82
2022-10-24T04:46:35.237Z,11.48
2022-10-24T04:49:04.744Z,8.32
2022-10-24T04:51:34.014Z,5.78
2022-10-24T04:54:03.217Z,7.50
2022-10-24T04:56:32.358Z,8.65
2022-10-24T04:59:02.935Z,5.75
2022-10-24T05:01:32.179Z,6.55
2022-10-24T05:06:35.623Z,11.85
2022-10-24T05:09:04.915Z,12.73
2022-10-24T05:11:34.436Z,7.95
2022-10-24T05:14:05.136Z,10.82
2022-10-24T05:16:34.614Z,7.47
2022-10-24T05:19:03.734Z,8.90
2022-10-24T05:21:33.239Z,8.32
2022-10-24T05:24:02.445Z,7.18
2022-10-24T05:26:31.668Z,13.77
2022-10-24T05:29:00.986Z,6.45
2022-10-24T05:34:05.583Z,7.82
2022-10-24T05:36:34.731Z,5.43
2022-10-24T05:39:03.879Z,8.07
2022-10-24T05:41:33.047Z,7.90
2022-10-24T05:44:02.239Z,7.45
2022-10-24T05:46:32.851Z,9.27
2022-10-24T05:49:01.966Z,12.60
2022-10-24T05:51:31.145Z,10.80
2022-10-24T05:54:02.073Z,8.90
2022-10-24T05:56:31.405Z,7.00
2022-10-24T05:59:00.818Z,6.57
2022-10-24T06:01:29.999Z,9.40
2022-10-24T06:04:00.720Z,15.52
2022-10-24T06:06:29.987Z,10.40
2022-10-24T06:08:59.489Z,13.30
2022-10-24T06:11:28.594Z,12.02
2022-10-24T06:13:57.837Z,15.25
2022-10-24T06:16:27.804Z,21.48
2022-10-24T06:18:57.243Z,13.27
2022-10-24T06:21:27.877Z,16.70
2022-10-24T06:23:57.066Z,16.95
2022-10-24T06:26:26.589Z,10.10
2022-10-24T06:28:56.438Z,8.38
2022-10-24T06:31:26.771Z,10.25
2022-10-24T06:33:56.260Z,11.10
2022-10-24T06:36:26.961Z,8.65
2022-10-24T06:39:00.104Z,12.50
2022-10-24T06:41:29.226Z,8.23
2022-10-24T06:43:58.682Z,8.30
2022-10-24T06:46:27.790Z,9.30
2022-10-24T06:48:57.862Z,8.15
2022-10-24T06:51:27.325Z,9.52
2022-10-24T06:53:56.631Z,9.57
2022-10-24T06:56:27.410Z,14.38
2022-10-24T06:58:56.555Z,12.73
2022-10-24T07:01:27.423Z,8.10
2022-10-24T07:03:56.789Z,9.45
2022-10-24T07:06:28.193Z,6.93
2022-10-24T07:08:59.236Z,9.68
2022-10-24T07:11:30.173Z,8.45
2022-10-24T07:14:00.932Z,10.23
2022-10-24T07:16:31.409Z,7.35
2022-10-24T07:19:00.521Z,8.57
2022-10-24T07:21:31.615Z,6.78
2022-10-24T07:24:02.137Z,9.23
2022-10-24T07:26:33.016Z,9.77
2022-10-24T07:31:38.122Z,7.72
2022-10-24T07:34:09.676Z,7.57
2022-10-24T07:36:41.433Z,6.82
2022-10-24T07:39:13.676Z,7.60
2022-10-24T07:41:44.381Z,6.90
2022-10-24T07:44:13.665Z,6.35
2022-10-24T07:46:43.409Z,7.97
2022-10-24T07:49:12.585Z,6.75
2022-10-24T07:51:42.774Z,7.82
2022-10-24T07:54:12.077Z,8.05
2022-10-24T07:56:41.388Z,6.90
2022-10-24T07:59:29.797Z,6.88
2022-10-24T08:02:01.182Z,5.60
2022-10-24T08:04:30.564Z,8.68
2022-10-24T08:07:00.556Z,7.63
2022-10-24T08:09:29.642Z,6.47
2022-10-24T08:11:58.715Z,4.85
2022-10-24T08:14:29.300Z,7.22
2022-10-24T08:16:58.413Z,6.85
2022-10-24T08:19:27.555Z,6.90
2022-10-24T08:21:56.677Z,6.13
2022-10-24T08:24:25.820Z,7.45
2022-10-24T08:26:56.628Z,8.95
2022-10-24T08:29:25.926Z,8.48
2022-10-24T08:31:58.767Z,7.32
2022-10-24T08:34:27.949Z,7.00
2022-10-24T08:36:57.202Z,7.13
2022-10-24T08:39:27.319Z,5.53
2022-10-24T08:42:00.308Z,8.48
2022-10-24T08:44:32.533Z,6.35
2022-10-24T08:47:10.083Z,5.70
2022-10-24T08:49:49.499Z,8.57
2022-10-24T08:52:29.156Z,4.65
2022-10-24T08:55:06.280Z,5.28
2022-10-24T08:57:36.854Z,7.57
2022-10-24T09:00:24.032Z,8.27
2022-10-24T09:03:02.710Z,6.65
2022-10-24T09:05:37.717Z,6.10
2022-10-24T09:08:21.725Z,6.57
2022-10-24T09:10:58.577Z,5.47
2022-10-24T09:13:29.739Z,6.35
2022-10-24T09:15:59.309Z,7.00
2022-10-24T09:18:34.581Z,8.95
2022-10-24T09:21:04.729Z,8.85
2022-10-24T09:23:35.265Z,5.57
2022-10-24T09:26:06.928Z,5.75
2022-10-24T09:28:40.541Z,5.15
2022-10-24T09:31:17.566Z,4.72
2022-10-24T09:33:50.533Z,5.80
2022-10-24T09:36:21.641Z,5.68
2022-10-24T09:38:50.830Z,7.97
2022-10-24T09:41:24.801Z,5.72
2022-10-24T09:43:56.457Z,6.03
2022-10-24T09:46:28.323Z,6.45
2022-10-24T09:49:00.739Z,6.07
2022-10-24T09:51:34.779Z,10.38
2022-10-24T09:54:27.750Z,6.18
2022-10-24T09:56:58.985Z,6.35
2022-10-24T09:59:41.663Z,6.38
2022-10-24T10:02:25.775Z,6.45
2022-10-24T10:05:21.683Z,5.25
2022-10-24T10:07:52.313Z,6.65
2022-10-24T10:10:35.374Z,6.32
2022-10-24T10:13:12.254Z,6.00
2022-10-24T10:15:47.459Z,5.15
2022-10-24T10:18:32.811Z,6.90
2022-10-24T10:21:09.514Z,6.20
2022-10-24T10:23:41.920Z,8.10
2022-10-24T10:26:29.736Z,6.35
2022-10-24T10:29:04.652Z,6.22
2022-10-24T10:31:40.828Z,6.97
2022-10-24T10:34:32.471Z,9.13
2022-10-24T10:37:32.280Z,5.63
2022-10-24T10:40:23.576Z,5.07
2022-10-24T10:43:18.568Z,5.97
2022-10-24T10:45:48.991Z,5.68
2022-10-24T10:48:36.905Z,6.00
2022-10-24T10:51:15.032Z,5.82
2022-10-24T10:53:53.964Z,5.28
2022-10-24T10:56:35.999Z,5.82
2022-10-24T10:59:16.270Z,6.47
2022-10-24T11:01:57.333Z,5.50
2022-10-24T11:04:34.806Z,6.47
2022-10-24T11:07:10.129Z,4.97
2022-10-24T11:09:44.752Z,7.18
2022-10-24T11:12:18.884Z,5.30
2022-10-24T11:14:52.979Z,4.50
2022-10-24T11:17:26.189Z,5.68
2022-10-24T11:20:02.821Z,6.07
2022-10-24T11:22:39.665Z,3.90
2022-10-24T11:25:22.162Z,4.60
2022-10-24T11:28:00.273Z,4.60
2022-10-24T11:30:44.523Z,5.50
2022-10-24T11:33:20.699Z,3.92
2022-10-24T11:36:09.481Z,5.07
2022-10-24T11:38:45.280Z,5.25
2022-10-24T11:41:32.409Z,4.90
2022-10-24T11:44:08.019Z,4.95
2022-10-24T11:46:43.657Z,5.30
2022-10-24T11:49:21.511Z,6.72
2022-10-24T11:51:56.989Z,6.07
2022-10-24T11:54:31.669Z,5.00
2022-10-24T11:57:05.729Z,4.22
2022-10-24T11:59:38.472Z,6.50
2022-10-24T12:02:41.168Z,4.07
2022-10-24T12:05:23.889Z,3.50
2022-10-24T12:08:22.717Z,5.28
2022-10-24T12:11:07.323Z,5.95
2022-10-24T12:13:51.194Z,6.88
2022-10-24T12:16:33.309Z,4.90
2022-10-24T12:19:05.656Z,5.15
2022-10-24T12:21:39.736Z,5.15
2022-10-24T12:24:22.958Z,5.03
2022-10-24T12:27:03.238Z,4.50
2022-10-24T12:29:36.494Z,4.00
2022-10-24T12:32:24.659Z,5.07
2022-10-24T12:37:50.585Z,3.95
2022-10-24T12:40:52.242Z,4.53
2022-10-24T12:43:34.454Z,3.65
2022-10-24T12:46:57.616Z,4.15
2022-10-24T12:49:31.031Z,4.60
2022-10-24T12:52:01.156Z,4.15
2022-10-24T12:54:43.661Z,4.03
2022-10-24T12:57:27.400Z,3.63
2022-10-24T12:59:59.195Z,4.65
2022-10-24T13:02:52.077Z,5.13
2022-10-24T13:05:46.407Z,6.05
2022-10-24T13:08:30.669Z,3.85
2022-10-24T13:11:11.367Z,4.95
2022-10-24T13:14:12.767Z,4.28
2022-10-24T13:16:53.388Z,4.15
2022-10-24T13:19:23.970Z,4.43
2022-10-24T13:21:55.599Z,3.88
2022-10-24T13:24:34.122Z,3.85
2022-10-24T13:27:28.323Z,4.28
2022-10-24T13:30:16.313Z,4.60
2022-10-24T13:32:45.634Z,5.63
2022-10-24T13:35:22.769Z,3.85
2022-10-24T13:37:59.160Z,4.93
2022-10-24T13:40:31.838Z,3.22
2022-10-24T13:43:06.833Z,5.80
2022-10-24T13:45:46.228Z,4.53
2022-10-24T13:48:19.970Z,4.15
2022-10-24T13:50:57.906Z,4.78
2022-10-24T13:53:31.493Z,4.28
2022-10-24T13:56:07.997Z,4.28
2022-10-24T13:58:44.321Z,3.90
2022-10-24T14:01:21.361Z,4.03
2022-10-24T14:03:51.267Z,3.25
2022-10-24T14:06:27.409Z,3.85
2022-10-24T14:09:05.841Z,4.93
2022-10-24T14:11:40.733Z,3.88
2022-10-24T14:14:23.691Z,4.63
2022-10-24T14:17:07.570Z,4.30
2022-10-24T14:19:44.355Z,4.35
2022-10-24T14:22:22.414Z,4.60
2022-10-24T14:24:51.813Z,4.38
2022-10-24T14:27:21.728Z,3.47
2022-10-24T14:30:01.497Z,3.55
2022-10-24T14:32:32.657Z,4.90
2022-10-24T14:35:03.104Z,6.45
2022-10-24T14:37:38.410Z,5.18
2022-10-24T14:40:16.729Z,5.40
2022-10-24T14:42:47.628Z,3.53
2022-10-24T14:45:27.904Z,4.07
2022-10-24T14:47:59.178Z,3.55
2022-10-24T14:50:41.088Z,4.43
2022-10-24T14:53:25.105Z,4.43
2022-10-24T14:55:55.610Z,5.22
2022-10-24T14:58:27.073Z,4.47
2022-10-24T15:00:57.185Z,4.38
2022-10-24T15:03:27.617Z,4.97
2022-10-24T15:05:59.359Z,4.07
2022-10-24T15:11:22.144Z,7.43
2022-10-24T15:14:06.421Z,7.32
2022-10-24T15:16:39.240Z,6.00
2022-10-24T15:19:17.966Z,10.55
2022-10-24T15:21:48.893Z,4.55
2022-10-24T15:24:24.969Z,7.38
2022-10-24T15:26:54.704Z,4.90
2022-10-24T15:29:26.688Z,7.45
2022-10-24T15:31:55.997Z,6.00
2022-10-24T15:34:27.429Z,6.65
2022-10-24T15:36:57.764Z,5.55
2022-10-24T15:39:28.446Z,5.00
2022-10-24T15:41:58.876Z,4.35
2022-10-24T15:44:32.756Z,5.45
2022-10-24T15:47:02.426Z,7.57
2022-10-24T15:49:31.705Z,6.40
2022-10-24T15:52:01.257Z,4.68
2022-10-24T15:54:32.116Z,7.50
2022-10-24T15:57:05.021Z,5.55
2022-10-24T15:59:34.768Z,4.82
2022-10-24T16:02:04.604Z,5.07
2022-10-24T16:04:35.024Z,5.97
2022-10-24T16:07:04.591Z,5.43
2022-10-24T16:09:35.267Z,5.45
2022-10-24T16:12:04.559Z,5.28
2022-10-24T16:14:33.915Z,10.90
2022-10-24T16:17:03.128Z,15.48
2022-10-24T16:19:32.339Z,8.15
2022-10-24T16:22:01.718Z,13.50
2022-10-24T16:24:31.231Z,6.60
2022-10-24T16:27:01.848Z,6.85
2022-10-24T16:29:31.149Z,5.45
2022-10-24T16:32:00.508Z,4.35
2022-10-24T16:34:29.761Z,5.18
2022-10-24T16:36:58.894Z,8.45
2022-10-24T16:39:28.076Z,6.57
2022-10-24T16:41:58.562Z,8.00
2022-10-24T16:44:29.245Z,8.35
2022-10-24T16:46:58.467Z,8.00
2022-10-24T16:49:27.731Z,8.13
2022-10-24T16:51:57.385Z,8.23
2022-10-24T16:54:26.683Z,11.07
2022-10-24T16:56:56.235Z,7.20
2022-10-24T16:59:26.487Z,12.10
2022-10-24T17:01:57.523Z,5.25
2022-10-24T17:04:30.243Z,9.02
2022-10-24T17:07:04.603Z,12.88
2022-10-24T17:09:34.087Z,12.38
2022-10-24T17:12:03.698Z,9.13
2022-10-24T17:14:35.048Z,8.27
2022-10-24T17:17:06.022Z,8.73
2022-10-24T17:19:36.514Z,10.40
2022-10-24T17:22:05.993Z,9.63
2022-10-24T17:24:35.413Z,8.95
2022-10-24T17:27:04.805Z,9.07
2022-10-24T17:29:35.104Z,11.60
2022-10-24T17:32:07.017Z,9.02
2022-10-24T17:34:36.999Z,8.07
2022-10-24T17:37:09.512Z,10.57
2022-10-24T17:39:46.322Z,10.38
2022-10-24T17:42:15.972Z,6.80
2022-10-24T17:44:46.140Z,6.70
2022-10-24T17:47:17.489Z,9.85
2022-10-24T17:49:47.309Z,16.95
2022-10-24T17:52:22.631Z,10.07
2022-10-24T17:54:52.405Z,5.68
2022-10-24T17:57:21.783Z,7.57
2022-10-24T17:59:51.042Z,9.77
2022-10-24T18:02:21.613Z,10.98
2022-10-24T18:04:53.013Z,10.43
2022-10-24T18:07:22.273Z,9.73
2022-10-24T18:09:58.374Z,11.27
2022-10-24T18:12:27.906Z,7.60
2022-10-24T18:14:57.637Z,10.52
2022-10-24T18:17:28.612Z,7.85
2022-10-24T18:19:57.908Z,9.20
2022-10-24T18:22:27.630Z,7.38
2022-10-24T18:24:57.026Z,8.05
2022-10-24T18:27:26.231Z,8.73
2022-10-24T18:29:55.712Z,10.50
2022-10-24T18:32:25.065Z,7.25
2022-10-24T18:34:55.971Z,7.88
2022-10-24T18:37:25.330Z,9.15
2022-10-24T18:39:55.001Z,5.65
2022-10-24T18:42:29.431Z,7.82
2022-10-24T18:44:59.400Z,7.22
2022-10-24T18:47:30.583Z,5.70
2022-10-24T18:50:01.860Z,7.28
2022-10-24T18:52:41.186Z,5.43
2022-10-24T18:55:19.115Z,6.65
2022-10-24T18:57:50.284Z,7.05
2022-10-24T19:00:21.662Z,9.50
2022-10-24T19:02:59.059Z,6.20
2022-10-24T19:05:44.153Z,5.82
2022-10-24T19:08:16.815Z,7.97
2022-10-24T19:10:47.236Z,5.15
2022-10-24T19:13:16.855Z,7.05
2022-10-24T19:15:50.469Z,12.82
2022-10-24T19:18:20.291Z,8.95
2022-10-24T19:20:51.209Z,19.92
2022-10-24T19:23:20.366Z,16.65
2022-10-24T19:25:49.554Z,18.13
2022-10-24T19:28:20.545Z,12.00
2022-10-24T19:30:50.603Z,11.07
2022-10-24T19:33:20.860Z,9.15
2022-10-24T19:35:51.426Z,13.10
2022-10-24T19:38:20.702Z,8.68
2022-10-24T19:40:52.111Z,10.15
2022-10-24T19:43:22.104Z,9.05
2022-10-24T19:46:07.539Z,6.90
2022-10-24T19:48:43.675Z,6.70
2022-10-24T19:51:15.051Z,7.63
2022-10-24T19:53:45.443Z,6.38
2022-10-24T19:56:20.087Z,7.13
2022-10-24T19:58:52.408Z,6.63
2022-10-24T20:01:25.791Z,4.10
2022-10-24T20:03:55.715Z,7.00
2022-10-24T20:06:26.705Z,3.13
2022-10-24T20:08:55.942Z,4.38
2022-10-24T20:11:27.037Z,6.43
2022-10-24T20:13:56.442Z,4.43
2022-10-24T20:16:25.529Z,6.90
2022-10-24T20:18:54.657Z,6.63
2022-10-24T20:21:25.169Z,5.50
2022-10-24T20:23:54.447Z,5.65
2022-10-24T20:26:25.363Z,4.65
2022-10-24T20:28:56.081Z,4.85
2022-10-24T20:31:28.153Z,4.40
2022-10-24T20:34:05.027Z,4.32
2022-10-24T20:36:39.537Z,3.50
2022-10-24T20:39:09.881Z,4.00
2022-10-24T20:41:39.704Z,3.45
2022-10-24T20:44:08.874Z,4.32
2022-10-24T20:46:38.174Z,4.88
2022-10-24T20:49:07.271Z,3.00
2022-10-24T20:51:36.476Z,5.05
2022-10-24T20:54:10.708Z,5.20
2022-10-24T20:56:42.644Z,3.72
2022-10-24T20:59:14.652Z,4.00
2022-10-24T21:01:43.933Z,3.55
2022-10-24T21:04:15.713Z,3.50
2022-10-24T21:06:47.692Z,3.40
2022-10-24T21:09:18.654Z,2.92
2022-10-24T21:11:48.775Z,3.60
2022-10-24T21:14:20.861Z,3.30
2022-10-24T21:16:49.995Z,4.70
2022-10-24T21:19:19.120Z,3.08
2022-10-24T21:21:48.945Z,2.85
2022-10-24T21:24:19.899Z,3.30
2022-10-24T21:26:49.046Z,3.85
2022-10-24T21:29:32.902Z,3.08
2022-10-24T21:32:03.055Z,7.45
2022-10-24T21:34:34.536Z,2.78
2022-10-24T21:37:05.200Z,3.38
2022-10-24T21:39:35.726Z,2.72
2022-10-24T21:42:05.596Z,4.88
2022-10-24T21:44:35.987Z,4.78
2022-10-24T21:47:05.169Z,3.70
2022-10-24T21:49:34.277Z,2.88
2022-10-24T21:52:03.368Z,2.35
2022-10-24T21:54:32.725Z,3.65
2022-10-24T21:57:03.236Z,4.43
2022-10-24T21:59:32.408Z,3.97
2022-10-24T22:02:01.649Z,3.00
2022-10-24T22:04:30.914Z,2.30
2022-10-24T22:07:00.076Z,3.22
2022-10-24T22:09:29.332Z,2.80
2022-10-24T22:11:58.896Z,3.13
2022-10-24T22:14:29.615Z,3.67
2022-10-24T22:16:58.886Z,3.38
2022-10-24T22:19:28.100Z,3.72
2022-10-24T22:21:57.234Z,2.15
2022-10-24T22:24:27.703Z,2.65
2022-10-24T22:26:56.866Z,2.10
2022-10-24T22:29:26.177Z,2.78
2022-10-24T22:31:57.516Z,3.20
2022-10-24T22:34:28.543Z,1.83
2022-10-24T22:37:09.046Z,2.78
2022-10-24T22:39:38.845Z,2.88
2022-10-24T22:42:12.437Z,2.45
2022-10-24T22:44:44.713Z,2.42
2022-10-24T22:47:33.718Z,2.22
2022-10-24T22:50:13.626Z,2.42
2022-10-24T22:52:43.716Z,2.97
2022-10-24T22:55:20.935Z,3.70
2022-10-24T22:57:50.690Z,2.70
2022-10-24T23:00:21.324Z,1.70
2022-10-24T23:02:55.185Z,2.70
2022-10-24T23:05:35.476Z,3.80
2022-10-24T23:08:07.055Z,2.55
2022-10-24T23:10:36.612Z,3.10
2022-10-24T23:13:06.332Z,2.70
2022-10-24T23:15:35.958Z,2.03
2022-10-24T23:18:07.184Z,3.42
2022-10-24T23:20:40.687Z,2.15
2022-10-24T23:23:28.305Z,2.47
2022-10-24T23:26:09.269Z,2.88
2022-10-24T23:28:44.908Z,1.60
2022-10-24T23:31:14.502Z,2.55
2022-10-24T23:33:45.725Z,2.67
2022-10-24T23:36:25.221Z,2.75
2022-10-24T23:38:57.680Z,5.13
2022-10-24T23:41:27.353Z,2.83
2022-10-24T23:43:57.248Z,1.80
2022-10-24T23:46:28.857Z,2.42
2022-10-24T23:49:28.517Z,2.13
2022-10-24T23:52:05.177Z,1.95
2022-10-24T23:54:35.319Z,2.53
2022-10-24T23:57:15.022Z,2.53
2022-10-24T23:59:44.408Z,4.15
